Time;durP1;ratioP1;P1;durP2;ratioP2;P2;SDS_P1;SDS_P2;PMS_P1;PMS_P2;Temp;Humidity;BMP_temperature;BMP_pressure;BME280_temperature;BME280_humidity;BME280_pressure;Samples;Min_cycle;Max_cycle;Signal;HPM_P1;HPM_P2
2021/12/14 00:00:51;;;;;;;36.95;18.48;;;2.60;99.90;;;;;;5127943;28;20396;-58
2021/12/14 00:03:20;;;;;;;38.70;18.83;;;2.60;99.90;;;;;;5122860;28;20096;-59
2021/12/14 00:05:47;;;;;;;33.85;18.13;;;2.60;99.90;;;;;;5127565;28;20039;-60
2021/12/14 00:08:15;;;;;;;31.65;17.08;;;2.60;99.90;;;;;;5119994;28;20032;-59
2021/12/14 00:16:11;;;;;;;42.75;18.63;;;2.60;99.90;;;;;;5109494;27;20039;-59
2021/12/14 00:18:39;;;;;;;41.90;19.05;;;2.60;99.90;;;;;;5111327;27;20631;-59
2021/12/14 00:21:19;;;;;;;30.25;16.67;;;2.60;99.90;;;;;;5095187;28;20044;-59
2021/12/14 00:24:09;;;;;;;33.53;17.80;;;2.60;99.90;;;;;;5094649;28;20043;-60
2021/12/14 00:26:39;;;;;;;37.17;17.42;;;2.60;99.90;;;;;;5094055;28;20036;-59
2021/12/14 00:29:12;;;;;;;33.65;17.50;;;2.60;99.90;;;;;;5100147;28;20740;-59
2021/12/14 00:31:39;;;;;;;32.00;17.98;;;2.60;99.90;;;;;;5102924;28;20062;-59
2021/12/14 00:34:08;;;;;;;36.90;17.00;;;2.60;99.90;;;;;;5093024;28;20113;-59
2021/12/14 00:36:37;;;;;;;32.95;16.85;;;2.60;99.90;;;;;;5092648;28;20380;-59
2021/12/14 00:39:07;;;;;;;26.05;16.30;;;2.60;99.90;;;;;;5108697;27;20067;-59
2021/12/14 00:41:38;;;;;;;28.05;15.50;;;2.60;99.90;;;;;;5092730;28;20056;-59
2021/12/14 00:44:06;;;;;;;29.85;16.42;;;2.60;99.90;;;;;;5093011;28;20052;-59
2021/12/14 00:46:35;;;;;;;33.38;15.68;;;2.60;99.90;;;;;;5092209;28;20403;-59
2021/12/14 00:49:08;;;;;;;37.65;17.60;;;2.60;99.90;;;;;;5094181;28;20040;-59
2021/12/14 00:51:35;;;;;;;33.30;17.50;;;2.60;99.90;;;;;;5094239;28;20055;-60
2021/12/14 00:54:05;;;;;;;30.40;16.48;;;2.60;99.90;;;;;;5092790;28;20097;-59
2021/12/14 00:56:33;;;;;;;32.03;16.88;;;2.60;99.90;;;;;;5092439;28;20055;-60
2021/12/14 00:59:05;;;;;;;37.58;17.75;;;2.70;99.90;;;;;;5092326;28;20044;-60
2021/12/14 01:01:41;;;;;;;32.17;16.77;;;2.70;99.90;;;;;;5092537;28;20044;-59
2021/12/14 01:04:23;;;;;;;29.73;16.08;;;2.70;99.90;;;;;;5093976;28;20040;-59
2021/12/14 01:06:50;;;;;;;32.90;16.50;;;2.70;99.90;;;;;;5093618;28;20040;-60
2021/12/14 01:09:26;;;;;;;32.90;17.13;;;2.70;99.90;;;;;;5093764;28;20584;-60
2021/12/14 01:12:01;;;;;;;31.63;16.58;;;2.70;99.90;;;;;;5092390;28;20052;-59
2021/12/14 01:14:40;;;;;;;33.33;16.55;;;2.70;99.90;;;;;;5093773;28;20106;-59
2021/12/14 01:17:39;;;;;;;30.90;16.65;;;2.70;99.90;;;;;;5093352;28;20059;-59
2021/12/14 01:20:08;;;;;;;;;;;2.60;99.90;;;;;;5092579;28;20059;-59
2021/12/14 01:25:17;;;;;;;33.03;15.82;;;2.60;99.90;;;;;;5093495;28;20081;-60
2021/12/14 01:28:01;;;;;;;29.55;14.65;;;2.60;99.90;;;;;;5093564;28;20051;-60
2021/12/14 01:30:52;;;;;;;30.08;16.25;;;2.60;99.90;;;;;;5077148;28;20576;-59
2021/12/14 01:33:22;;;;;;;31.95;17.38;;;2.60;99.90;;;;;;5093394;28;20051;-59
2021/12/14 01:35:49;;;;;;;35.65;17.75;;;2.50;99.90;;;;;;5092891;28;20381;-59
2021/12/14 01:41:02;;;;;;;33.10;17.33;;;2.50;99.90;;;;;;5091566;28;20044;-60
2021/12/14 01:43:46;;;;;;;34.67;18.02;;;2.50;99.90;;;;;;5092127;28;20040;-60
2021/12/14 01:46:49;;;;;;;32.33;16.67;;;2.50;99.90;;;;;;5092814;28;20039;-59
2021/12/14 01:49:46;;;;;;;36.53;18.17;;;2.50;99.90;;;;;;5055340;28;20136;-59
2021/12/14 01:52:26;;;;;;;31.80;17.52;;;2.50;99.90;;;;;;5093062;28;20044;-59
2021/12/14 01:55:04;;;;;;;35.38;16.98;;;2.50;99.90;;;;;;5093096;28;20032;-59
2021/12/14 01:57:32;;;;;;;34.30;17.42;;;2.50;99.90;;;;;;5091481;28;20072;-59
2021/12/14 02:00:02;;;;;;;32.50;16.23;;;2.50;99.90;;;;;;5091553;28;20048;-59
2021/12/14 02:02:42;;;;;;;42.38;18.42;;;2.50;99.90;;;;;;5092833;28;20052;-59
2021/12/14 02:05:31;;;;;;;33.30;17.17;;;2.60;99.90;;;;;;5091310;28;20040;-60
2021/12/14 02:08:01;;;;;;;36.72;18.60;;;2.60;99.90;;;;;;5092751;28;20051;-59
2021/12/14 02:10:33;;;;;;;31.40;17.08;;;2.60;99.90;;;;;;5090996;28;20054;-59
2021/12/14 02:13:01;;;;;;;34.58;17.25;;;2.60;99.90;;;;;;5091386;28;20131;-59
2021/12/14 02:15:39;;;;;;;38.40;18.27;;;2.60;99.90;;;;;;5091356;28;20048;-60
2021/12/14 02:18:16;;;;;;;31.25;16.45;;;2.60;99.90;;;;;;5091305;28;20499;-60
2021/12/14 02:20:52;;;;;;;32.67;16.60;;;2.60;99.90;;;;;;5091204;28;20043;-60
2021/12/14 02:23:20;;;;;;;38.03;17.38;;;2.60;99.90;;;;;;5091066;28;20040;-59
2021/12/14 02:25:49;;;;;;;32.38;16.20;;;2.60;99.90;;;;;;5090969;28;20043;-60
2021/12/14 02:28:18;;;;;;;32.15;17.00;;;2.60;99.90;;;;;;5092430;28;20048;-59
2021/12/14 02:30:50;;;;;;;28.52;15.65;;;2.60;99.90;;;;;;5091048;28;20074;-60
2021/12/14 02:33:22;;;;;;;32.63;15.68;;;2.60;99.90;;;;;;5090731;28;20094;-59
2021/12/14 02:35:51;;;;;;;27.20;13.90;;;2.60;99.90;;;;;;5090801;28;20055;-59
2021/12/14 02:38:21;;;;;;;30.50;14.57;;;2.60;99.90;;;;;;5091188;28;20040;-59
2021/12/14 02:40:53;;;;;;;26.17;14.48;;;2.60;99.90;;;;;;5090721;28;20048;-59
2021/12/14 02:43:27;;;;;;;28.92;13.95;;;2.50;99.90;;;;;;5090951;28;20052;-60
2021/12/14 02:46:12;;;;;;;24.23;13.13;;;2.50;99.90;;;;;;5090587;28;20040;-60
2021/12/14 02:48:43;;;;;;;28.65;14.95;;;2.50;99.90;;;;;;5090694;28;20036;-60
2021/12/14 02:51:25;;;;;;;28.20;14.93;;;2.50;99.90;;;;;;5090698;28;20483;-59
2021/12/14 02:53:56;;;;;;;26.00;13.82;;;2.50;99.90;;;;;;5090560;28;20059;-60
2021/12/14 02:56:27;;;;;;;27.60;13.38;;;2.60;99.90;;;;;;5090396;28;20048;-59
2021/12/14 02:59:04;;;;;;;27.95;13.70;;;2.50;99.90;;;;;;5091891;28;20036;-60
2021/12/14 03:01:33;;;;;;;27.90;13.00;;;2.60;99.90;;;;;;5091821;28;20097;-60
2021/12/14 03:04:04;;;;;;;26.52;13.98;;;2.60;99.90;;;;;;5090478;28;20454;-60
2021/12/14 03:06:36;;;;;;;28.52;13.38;;;2.60;99.90;;;;;;5090197;28;20050;-60
2021/12/14 03:09:16;;;;;;;24.83;13.10;;;2.60;99.90;;;;;;5090452;28;20101;-60
2021/12/14 03:11:45;;;;;;;23.02;13.15;;;2.70;99.90;;;;;;5093823;22;20058;-63
2021/12/14 03:14:12;;;;;;;19.95;11.82;;;2.70;99.90;;;;;;5090812;28;20561;-62
2021/12/14 03:16:40;;;;;;;23.90;12.43;;;2.70;99.90;;;;;;5072722;28;20044;-63
2021/12/14 03:19:08;;;;;;;24.45;12.43;;;2.60;99.90;;;;;;5073213;28;20044;-63
2021/12/14 03:21:39;;;;;;;21.00;11.60;;;2.70;99.90;;;;;;5073118;28;20463;-63
2021/12/14 03:24:10;;;;;;;21.75;12.27;;;2.60;99.90;;;;;;5091571;28;20127;-62
2021/12/14 03:26:42;;;;;;;22.38;12.18;;;2.60;99.90;;;;;;5072640;28;20036;-62
2021/12/14 03:29:13;;;;;;;22.73;12.05;;;2.60;99.90;;;;;;5067675;28;20135;-63
2021/12/14 03:31:46;;;;;;;25.77;13.25;;;2.60;99.90;;;;;;5056290;28;20047;-62
2021/12/14 03:34:28;;;;;;;25.13;13.02;;;2.50;99.90;;;;;;5052849;28;20055;-62
2021/12/14 03:37:03;;;;;;;26.27;12.90;;;2.50;99.90;;;;;;5052535;28;20131;-62
2021/12/14 03:39:43;;;;;;;26.95;12.95;;;2.40;99.90;;;;;;5051947;28;20056;-62
2021/12/14 03:42:19;;;;;;;27.50;13.65;;;2.40;99.90;;;;;;5070422;28;20142;-62
2021/12/14 03:44:50;;;;;;;25.58;12.95;;;2.30;99.90;;;;;;5053343;28;20047;-62
2021/12/14 03:47:33;;;;;;;25.15;13.23;;;2.30;99.90;;;;;;5056862;28;20524;-62
2021/12/14 03:50:10;;;;;;;33.30;14.13;;;2.30;99.90;;;;;;5057207;28;20401;-62
2021/12/14 03:52:40;;;;;;;27.10;13.25;;;2.30;99.90;;;;;;5056969;28;20057;-62
2021/12/14 03:55:17;;;;;;;26.92;13.65;;;2.30;99.90;;;;;;5057046;28;20090;-62
2021/12/14 03:57:45;;;;;;;27.95;14.23;;;2.30;99.90;;;;;;5057094;28;20197;-62
2021/12/14 04:00:23;;;;;;;;;;;2.30;99.90;;;;;;5057167;28;20132;-62
2021/12/14 04:02:54;;;;;;;24.75;13.35;;;2.30;99.90;;;;;;5075365;28;19959;-62
2021/12/14 04:05:35;;;;;;;23.15;13.05;;;2.30;99.90;;;;;;5056271;28;20063;-62
2021/12/14 04:08:05;;;;;;;26.17;12.95;;;2.40;99.90;;;;;;5056802;28;20064;-62
2021/12/14 04:10:35;;;;;;;;;;;2.30;99.90;;;;;;5056926;28;20072;-62
2021/12/14 04:13:04;;;;;;;23.10;12.20;;;2.40;99.90;;;;;;5073441;28;19927;-62
2021/12/14 04:15:32;;;;;;;23.83;12.70;;;2.40;99.90;;;;;;5056275;28;20566;-62
2021/12/14 04:18:00;;;;;;;23.40;13.00;;;2.30;99.90;;;;;;5056544;28;20045;-62
2021/12/14 04:20:32;;;;;;;29.90;13.65;;;2.30;99.90;;;;;;5056450;28;20044;-62
2021/12/14 04:23:06;;;;;;;28.08;14.15;;;2.30;99.90;;;;;;5074404;28;20028;-62
2021/12/14 04:25:35;;;;;;;26.90;13.40;;;2.30;99.90;;;;;;5056195;28;20135;-62
2021/12/14 04:28:11;;;;;;;27.08;13.18;;;2.30;99.90;;;;;;5074305;28;20060;-62
2021/12/14 04:30:38;;;;;;;24.20;12.85;;;2.30;99.90;;;;;;5056367;28;20098;-62
2021/12/14 04:33:09;;;;;;;24.17;12.63;;;2.30;99.90;;;;;;5056396;28;20040;-62
2021/12/14 04:35:39;;;;;;;22.25;12.38;;;2.30;99.90;;;;;;5055972;28;20401;-62
2021/12/14 04:38:21;;;;;;;22.02;11.40;;;2.30;99.90;;;;;;5056156;28;20056;-62
2021/12/14 04:52:16;;;;;;;20.02;10.93;;;2.30;99.90;;;;;;5055814;28;20122;-62
2021/12/14 04:54:56;;;;;;;22.95;12.45;;;2.30;99.90;;;;;;5056186;28;20078;-62
2021/12/14 04:57:43;;;;;;;22.67;11.95;;;2.30;99.90;;;;;;5054598;28;20046;-62
2021/12/14 05:00:23;;;;;;;24.88;12.05;;;2.30;99.90;;;;;;5055830;28;20139;-62
2021/12/14 05:03:00;;;;;;;28.40;12.13;;;2.30;99.90;;;;;;5055835;28;20041;-62
2021/12/14 05:05:47;;;;;;;23.83;11.65;;;2.30;99.90;;;;;;5055408;28;20098;-62
2021/12/14 05:10:59;;;;;;;20.90;11.30;;;2.30;99.90;;;;;;5055487;28;20447;-62
2021/12/14 05:13:30;;;;;;;21.65;11.35;;;2.30;99.90;;;;;;5055627;28;20044;-62
2021/12/14 05:15:57;;;;;;;19.17;10.63;;;2.30;99.90;;;;;;5055217;28;20068;-62
2021/12/14 05:18:25;;;;;;;19.80;10.55;;;2.30;99.90;;;;;;5055508;28;20037;-62
2021/12/14 05:20:52;;;;;;;17.80;10.00;;;2.40;99.90;;;;;;5055098;28;20036;-62
2021/12/14 05:23:26;;;;;;;21.85;10.50;;;2.40;99.90;;;;;;5055278;28;20047;-62
2021/12/14 05:25:55;;;;;;;20.42;9.90;;;2.30;99.90;;;;;;5071915;28;20044;-62
2021/12/14 05:28:23;;;;;;;17.75;10.10;;;2.40;99.90;;;;;;5064645;28;20039;-62
2021/12/14 05:30:56;;;;;;;18.80;10.13;;;2.40;99.90;;;;;;5085417;28;20685;-62
2021/12/14 05:33:33;;;;;;;19.40;9.82;;;2.40;99.90;;;;;;5083956;28;20046;-62
2021/12/14 05:36:15;;;;;;;20.45;10.00;;;2.40;99.90;;;;;;5082988;28;20044;-62
2021/12/14 05:44:25;;;;;;;18.60;10.05;;;2.40;99.90;;;;;;5085350;28;20051;-62
2021/12/14 05:47:00;;;;;;;;;;;2.40;99.90;;;;;;5083086;28;20058;-62
2021/12/14 05:49:53;;;;;;;19.38;10.40;;;2.40;99.90;;;;;;5088893;28;20414;-62
2021/12/14 05:52:28;;;;;;;20.52;10.00;;;2.30;99.90;;;;;;5075172;28;20109;-62
2021/12/14 05:55:04;;;;;;;19.17;10.40;;;2.30;99.90;;;;;;5074826;28;20075;-62
2021/12/14 05:57:31;;;;;;;20.33;10.63;;;2.30;99.90;;;;;;5074543;28;20050;-62
2021/12/14 05:59:58;;;;;;;17.80;9.38;;;2.30;99.90;;;;;;5074598;28;20051;-62
2021/12/14 06:02:28;;;;;;;17.48;9.07;;;2.30;99.90;;;;;;5074616;28;20036;-62
2021/12/14 06:04:55;;;;;;;;;;;2.30;99.90;;;;;;5074417;28;20043;-62
2021/12/14 06:07:24;;;;;;;20.80;10.25;;;2.30;99.90;;;;;;5073868;28;19924;-62
2021/12/14 06:09:53;;;;;;;16.23;8.70;;;2.40;99.90;;;;;;5074030;28;20109;-62
2021/12/14 06:12:29;;;;;;;19.30;9.20;;;2.40;99.90;;;;;;5074439;28;20693;-62
2021/12/14 06:14:59;;;;;;;42.65;10.93;;;2.40;99.90;;;;;;5092604;28;20062;-62
2021/12/14 06:17:37;;;;;;;15.57;9.00;;;2.40;99.90;;;;;;5079186;28;20062;-62
2021/12/14 06:20:09;;;;;;;17.60;8.95;;;2.40;99.90;;;;;;5080102;28;20487;-62
2021/12/14 06:22:39;;;;;;;17.98;10.13;;;2.40;99.90;;;;;;5098361;28;20036;-62
2021/12/14 06:25:11;;;;;;;18.00;10.00;;;2.40;99.90;;;;;;5082996;28;20036;-62
2021/12/14 06:27:38;;;;;;;17.92;9.57;;;2.30;99.90;;;;;;5081233;28;20044;-62
2021/12/14 06:30:12;;;;;;;15.05;9.38;;;2.30;99.90;;;;;;5103698;28;20046;-61
2021/12/14 06:32:49;;;;;;;14.85;9.05;;;2.30;99.90;;;;;;5094626;28;20417;-62
2021/12/14 06:35:17;;;;;;;16.08;9.65;;;2.30;99.90;;;;;;5108035;28;20044;-62
2021/12/14 06:41:06;;;;;;;14.38;8.88;;;2.30;99.90;;;;;;5072757;28;20043;-62
2021/12/14 06:43:49;;;;;;;16.67;9.00;;;2.30;99.90;;;;;;5074092;28;20040;-62
2021/12/14 06:46:29;;;;;;;14.25;8.50;;;2.30;99.90;;;;;;5073629;28;20050;-62
2021/12/14 06:49:01;;;;;;;17.77;10.40;;;2.40;99.90;;;;;;5091959;28;20123;-62
2021/12/14 06:51:39;;;;;;;14.90;8.70;;;2.50;99.90;;;;;;5073551;28;20036;-62
2021/12/14 06:54:17;;;;;;;14.40;8.52;;;2.50;99.90;;;;;;5073958;28;20125;-62
2021/12/14 06:57:02;;;;;;;15.52;8.55;;;2.50;99.90;;;;;;5073464;28;20085;-62
2021/12/14 06:59:55;;;;;;;20.17;10.63;;;2.40;99.90;;;;;;5091929;28;20054;-62
2021/12/14 07:02:26;;;;;;;19.27;10.85;;;2.40;99.90;;;;;;5073743;28;20063;-61
2021/12/14 07:05:05;;;;;;;20.00;11.27;;;2.50;99.90;;;;;;5073530;28;20523;-62
2021/12/14 07:07:37;;;;;;;16.55;8.85;;;2.50;99.90;;;;;;5073498;28;20047;-62
2021/12/14 07:10:12;;;;;;;20.33;8.90;;;2.40;99.90;;;;;;5073771;28;20050;-62
2021/12/14 07:12:40;;;;;;;21.08;8.88;;;2.30;99.90;;;;;;5093567;28;20055;-62
2021/12/14 07:15:13;;;;;;;20.35;9.23;;;2.30;99.90;;;;;;5091101;28;20492;-62
2021/12/14 07:17:45;;;;;;;15.23;8.95;;;2.30;99.90;;;;;;5110804;28;20495;-62
2021/12/14 07:20:38;;;;;;;14.82;8.70;;;2.30;99.90;;;;;;5110535;28;20048;-61
2021/12/14 07:23:25;;;;;;;16.58;8.88;;;2.30;99.90;;;;;;5080011;28;20488;-62
2021/12/14 07:26:01;;;;;;;15.80;8.57;;;2.40;99.90;;;;;;5096305;28;20042;-61
2021/12/14 07:28:40;;;;;;;14.13;7.88;;;2.40;99.90;;;;;;5111869;28;20054;-61
2021/12/14 07:31:17;;;;;;;18.13;8.23;;;2.00;99.90;;;;;;5111912;28;20104;-62
2021/12/14 07:33:56;;;;;;;21.55;9.57;;;2.40;99.90;;;;;;5112030;28;20046;-62
2021/12/14 07:36:26;;;;;;;18.10;10.23;;;2.40;99.90;;;;;;5111287;28;20114;-62
2021/12/14 07:38:59;;;;;;;20.65;9.38;;;2.40;99.90;;;;;;5111772;28;20561;-62
2021/12/14 07:41:35;;;;;;;13.77;7.95;;;2.40;99.90;;;;;;5111737;28;20035;-61
2021/12/14 07:44:26;;;;;;;13.32;7.65;;;2.50;99.90;;;;;;5093509;28;20454;-62
2021/12/14 07:47:15;;;;;;;15.32;8.40;;;2.50;99.90;;;;;;5111430;28;20051;-62
2021/12/14 07:49:54;;;;;;;14.73;8.52;;;2.50;99.90;;;;;;5111758;28;20372;-62
2021/12/14 07:52:35;;;;;;;15.52;8.02;;;2.50;99.90;;;;;;5111551;28;20044;-62
2021/12/14 07:55:09;;;;;;;15.77;7.78;;;2.60;99.90;;;;;;5111589;28;20408;-62
2021/12/14 07:57:37;;;;;;;13.50;7.75;;;2.60;99.90;;;;;;5111411;28;20044;-62
2021/12/14 08:00:13;;;;;;;13.50;7.63;;;2.70;99.90;;;;;;5111529;28;20074;-62
2021/12/14 08:02:49;;;;;;;15.32;8.60;;;2.70;99.90;;;;;;5111506;28;20044;-61
2021/12/14 08:05:27;;;;;;;12.98;7.75;;;2.80;99.90;;;;;;5111198;28;20043;-61
2021/12/14 08:08:16;;;;;;;13.73;7.80;;;2.80;99.90;;;;;;5111616;28;20096;-61
2021/12/14 08:11:16;;;;;;;13.82;7.13;;;2.90;99.90;;;;;;5105614;28;20032;-61
2021/12/14 08:13:47;;;;;;;15.45;8.32;;;3.00;99.90;;;;;;5111564;28;20055;-61
2021/12/14 08:16:14;;;;;;;16.85;9.20;;;3.10;99.90;;;;;;5111180;28;20040;-61
2021/12/14 08:18:42;;;;;;;11.10;6.53;;;3.20;99.90;;;;;;5111482;28;20054;-61
2021/12/14 08:21:15;;;;;;;11.15;6.22;;;3.20;99.90;;;;;;5111400;28;20089;-61
2021/12/14 08:23:54;;;;;;;11.63;6.68;;;3.20;99.90;;;;;;5111180;28;20435;-62
2021/12/14 08:26:25;;;;;;;8.23;5.55;;;3.40;99.90;;;;;;5111036;28;20480;-61
2021/12/14 08:29:00;;;;;;;12.23;6.43;;;3.50;99.90;;;;;;5111181;28;20097;-61
2021/12/14 08:31:35;;;;;;;9.93;6.00;;;3.50;99.90;;;;;;5111962;28;20476;-62
2021/12/14 08:34:10;;;;;;;12.23;6.93;;;3.60;99.90;;;;;;5114983;28;20125;-62
2021/12/14 08:36:53;;;;;;;8.10;5.30;;;3.60;99.90;;;;;;5114597;28;20036;-61
2021/12/14 08:39:38;;;;;;;10.63;5.82;;;3.50;99.90;;;;;;5114690;28;20409;-61
2021/12/14 08:42:25;;;;;;;10.82;6.20;;;3.60;99.90;;;;;;5114788;28;20067;-62
2021/12/14 08:44:57;;;;;;;9.18;5.60;;;3.50;99.90;;;;;;5114585;28;20536;-61
2021/12/14 08:47:30;;;;;;;13.35;6.25;;;3.40;99.90;;;;;;5114408;28;20054;-62
2021/12/14 08:50:00;;;;;;;12.48;7.00;;;3.30;99.90;;;;;;5114613;28;20047;-61
2021/12/14 08:52:30;;;;;;;11.98;7.30;;;3.20;99.90;;;;;;5114787;28;20558;-61
2021/12/14 08:54:59;;;;;;;14.00;7.30;;;3.30;99.90;;;;;;5114430;28;20044;-62
2021/12/14 08:57:29;;;;;;;14.98;7.18;;;3.30;99.90;;;;;;5114033;28;20126;-61
2021/12/14 09:00:01;;;;;;;15.38;8.23;;;3.30;99.90;;;;;;5114524;28;20503;-61
2021/12/14 09:02:32;;;;;;;16.77;8.50;;;3.30;99.90;;;;;;5114572;28;20492;-62
2021/12/14 09:05:07;;;;;;;14.05;7.70;;;3.40;99.90;;;;;;5114385;28;20044;-62
2021/12/14 09:07:34;;;;;;;16.20;8.77;;;3.50;99.90;;;;;;5114172;28;20541;-61
2021/12/14 09:10:07;;;;;;;12.43;7.47;;;3.50;99.90;;;;;;5114412;28;20096;-62
2021/12/14 09:12:39;;;;;;;13.80;8.27;;;3.60;99.90;;;;;;5108664;22;20063;-59
2021/12/14 09:15:11;;;;;;;17.90;8.50;;;3.70;99.90;;;;;;5079554;28;20059;-59
2021/12/14 09:17:38;;;;;;;12.93;7.03;;;3.80;99.90;;;;;;5073584;28;20045;-59
2021/12/14 09:20:15;;;;;;;11.75;6.45;;;3.80;99.90;;;;;;5073544;28;20041;-59
2021/12/14 09:22:47;;;;;;;11.52;6.22;;;3.80;99.90;;;;;;5073158;28;20059;-59
2021/12/14 09:25:18;;;;;;;13.63;7.30;;;3.70;99.90;;;;;;5072950;28;20094;-59
2021/12/14 09:27:46;;;;;;;11.65;6.45;;;3.70;99.90;;;;;;5071919;28;20153;-59
2021/12/14 09:30:16;;;;;;;8.70;5.13;;;3.80;99.90;;;;;;5073363;28;20044;-59
2021/12/14 09:32:44;;;;;;;10.00;5.82;;;4.00;99.90;;;;;;5080831;28;20119;-59
2021/12/14 09:35:19;;;;;;;;;;;4.20;99.90;;;;;;5093534;28;20040;-59
2021/12/14 09:37:48;;;;;;;9.27;5.80;;;4.40;99.90;;;;;;5106252;28;19923;-59
2021/12/14 09:40:23;;;;;;;11.85;6.15;;;4.60;99.90;;;;;;5113609;28;20073;-59
2021/12/14 09:42:50;;;;;;;6.85;4.40;;;4.70;99.90;;;;;;5111961;28;20059;-59
2021/12/14 09:45:34;;;;;;;10.00;5.72;;;4.40;99.90;;;;;;5113260;28;20043;-59
2021/12/14 09:48:04;;;;;;;7.63;5.00;;;4.50;99.90;;;;;;5113411;28;20523;-59
2021/12/14 09:50:36;;;;;;;7.65;5.30;;;4.60;99.90;;;;;;5113465;28;20036;-59
2021/12/14 09:53:06;;;;;;;18.10;8.30;;;4.90;99.90;;;;;;5113368;28;20049;-59
2021/12/14 09:55:37;;;;;;;20.52;8.68;;;5.10;99.90;;;;;;5113116;28;20048;-59
2021/12/14 09:58:12;;;;;;;16.88;8.52;;;5.00;99.90;;;;;;5114040;28;20039;-60
2021/12/14 10:01:12;;;;;;;13.48;7.25;;;5.30;99.90;;;;;;5113273;28;20595;-59
2021/12/14 10:03:42;;;;;;;9.70;4.93;;;5.30;99.90;;;;;;5110496;28;20055;-59
2021/12/14 10:06:12;;;;;;;9.05;4.85;;;5.40;99.90;;;;;;5113091;28;20389;-59
2021/12/14 10:08:48;;;;;;;6.40;4.40;;;5.40;99.90;;;;;;5113520;28;20042;-59
2021/12/14 10:11:34;;;;;;;8.20;5.28;;;5.10;99.90;;;;;;5112818;28;20126;-59
2021/12/14 10:14:04;;;;;;;7.78;4.75;;;4.70;99.90;;;;;;5113068;28;20120;-59
2021/12/14 10:16:31;;;;;;;9.65;5.55;;;4.70;99.90;;;;;;5112706;28;20100;-60
2021/12/14 10:19:03;;;;;;;9.35;4.95;;;4.60;99.90;;;;;;5113053;28;20101;-59
2021/12/14 10:21:35;;;;;;;8.45;5.53;;;4.50;99.90;;;;;;5112872;28;20088;-59
2021/12/14 10:24:06;;;;;;;9.68;5.35;;;4.40;99.90;;;;;;5112488;28;20130;-59
2021/12/14 10:26:40;;;;;;;9.90;6.00;;;4.30;99.90;;;;;;5112531;28;20044;-59
2021/12/14 10:29:07;;;;;;;13.63;6.95;;;4.00;99.90;;;;;;5113110;28;20465;-59
2021/12/14 10:31:44;;;;;;;11.85;6.80;;;4.10;99.90;;;;;;5112670;28;20047;-59
2021/12/14 10:34:18;;;;;;;9.10;5.82;;;4.30;99.90;;;;;;5112635;28;20044;-59
2021/12/14 10:36:52;;;;;;;11.18;6.43;;;4.20;99.90;;;;;;5112461;28;20101;-59
2021/12/14 10:45:06;;;;;;;11.13;6.25;;;4.50;99.90;;;;;;5112199;28;20047;-60
2021/12/14 10:47:34;;;;;;;8.20;5.85;;;4.70;99.90;;;;;;5112380;28;20043;-59
2021/12/14 10:50:07;;;;;;;10.60;5.85;;;4.50;99.90;;;;;;5111817;28;20035;-59
2021/12/14 10:52:40;;;;;;;13.27;6.90;;;4.30;99.90;;;;;;5098970;28;20772;-59
2021/12/14 10:55:12;;;;;;;11.52;7.20;;;4.50;99.90;;;;;;5090123;28;20067;-59
2021/12/14 10:57:39;;;;;;;9.52;6.50;;;4.60;99.90;;;;;;5091407;28;20040;-59
2021/12/14 11:00:33;;;;;;;12.45;6.72;;;4.70;99.90;;;;;;5090887;28;20101;-59
2021/12/14 11:03:06;;;;;;;11.10;6.57;;;4.90;99.90;;;;;;5091468;28;20484;-59
2021/12/14 11:05:35;;;;;;;10.73;6.35;;;5.00;99.90;;;;;;5091168;28;20381;-59
2021/12/14 11:08:05;;;;;;;10.75;6.40;;;5.00;99.90;;;;;;5091728;28;20093;-59
2021/12/14 11:10:38;;;;;;;12.88;6.78;;;4.90;99.90;;;;;;5091865;28;20123;-59
2021/12/14 11:13:11;;;;;;;10.45;6.85;;;5.00;99.90;;;;;;5091414;28;20048;-59
2021/12/14 11:15:52;;;;;;;10.77;5.88;;;5.10;99.90;;;;;;5091353;28;20467;-59
2021/12/14 11:18:26;;;;;;;10.18;6.45;;;5.20;99.90;;;;;;5091542;28;20446;-59
2021/12/14 11:20:57;;;;;;;10.23;5.90;;;5.30;99.90;;;;;;5091155;28;20079;-59
2021/12/14 11:23:37;;;;;;;10.15;6.20;;;5.40;99.90;;;;;;5091556;28;20617;-59
2021/12/14 11:26:22;;;;;;;9.75;5.68;;;5.40;99.90;;;;;;5091037;28;20063;-58
2021/12/14 11:28:57;;;;;;;11.95;6.07;;;5.30;99.90;;;;;;5091611;28;20382;-59
2021/12/14 11:31:41;;;;;;;11.65;6.00;;;5.20;99.90;;;;;;5091550;28;20032;-59
2021/12/14 11:34:17;;;;;;;9.02;6.35;;;5.10;99.90;;;;;;5091955;28;20044;-59
2021/12/14 11:37:00;;;;;;;14.63;6.00;;;5.10;99.90;;;;;;5091092;28;20036;-59
2021/12/14 11:39:31;;;;;;;12.10;6.15;;;5.20;99.90;;;;;;5091503;28;20039;-59
2021/12/14 11:42:03;;;;;;;11.00;6.50;;;5.30;99.90;;;;;;5091058;28;20046;-60
2021/12/14 11:44:40;;;;;;;11.77;7.28;;;5.50;99.90;;;;;;5090945;28;20486;-59
2021/12/14 11:50:04;;;;;;;9.82;5.60;;;5.90;99.90;;;;;;5091221;28;20043;-59
2021/12/14 11:52:53;;;;;;;10.65;5.65;;;6.00;99.90;;;;;;5091534;28;20067;-59
2021/12/14 11:55:32;;;;;;;12.52;6.35;;;5.90;99.90;;;;;;5090983;28;20046;-59
2021/12/14 11:58:26;;;;;;;10.75;5.97;;;5.80;99.90;;;;;;5091387;28;20040;-59
2021/12/14 12:01:12;;;;;;;9.13;5.82;;;5.80;99.90;;;;;;5090438;28;20403;-59
2021/12/14 12:03:44;;;;;;;10.00;6.80;;;5.70;99.90;;;;;;5089005;28;20040;-59
2021/12/14 12:06:42;;;;;;;10.07;6.88;;;5.50;99.90;;;;;;5087276;28;20036;-59
2021/12/14 12:12:03;;;;;;;15.15;8.27;;;5.20;99.90;;;;;;5093807;28;20060;-59
2021/12/14 12:14:42;;;;;;;15.40;8.77;;;5.10;99.90;;;;;;5094076;28;20048;-59
2021/12/14 12:17:23;;;;;;;13.35;7.30;;;5.10;99.90;;;;;;5093720;28;20078;-59
2021/12/14 12:20:20;;;;;;;13.77;7.18;;;5.00;99.90;;;;;;5093913;28;20044;-59
2021/12/14 12:23:00;;;;;;;16.42;9.02;;;4.90;99.90;;;;;;5092071;28;20589;-59
2021/12/14 12:25:32;;;;;;;12.77;7.28;;;4.80;99.90;;;;;;5092240;28;20553;-59
2021/12/14 12:28:11;;;;;;;12.45;6.80;;;4.80;99.90;;;;;;5094061;28;20085;-59
2021/12/14 12:30:52;;;;;;;10.30;6.65;;;4.60;99.90;;;;;;5091293;28;20032;-59
2021/12/14 12:33:24;;;;;;;10.85;6.38;;;4.50;99.90;;;;;;5087126;28;20392;-58
2021/12/14 12:36:08;;;;;;;10.40;6.38;;;4.40;99.90;;;;;;5099139;28;20089;-59
2021/12/14 12:38:50;;;;;;;14.25;6.63;;;4.50;99.90;;;;;;5101921;28;20458;-58
2021/12/14 12:41:25;;;;;;;10.73;6.93;;;4.70;99.90;;;;;;5102205;28;20089;-58
2021/12/14 12:44:06;;;;;;;13.13;6.38;;;4.90;99.90;;;;;;5099753;28;20036;-58
2021/12/14 12:46:38;;;;;;;11.65;6.13;;;5.00;99.90;;;;;;5100330;28;20093;-58
2021/12/14 12:49:11;;;;;;;13.07;6.97;;;5.10;99.90;;;;;;5102423;28;20738;-58
2021/12/14 12:51:56;;;;;;;10.07;6.60;;;5.20;99.90;;;;;;5101878;28;20685;-58
2021/12/14 12:54:49;;;;;;;11.60;6.97;;;5.30;99.90;;;;;;5101075;28;20055;-58
2021/12/14 12:57:33;;;;;;;11.82;7.07;;;5.30;99.90;;;;;;5091014;28;20508;-58
2021/12/14 13:00:17;;;;;;;10.27;6.28;;;5.30;99.90;;;;;;5094129;28;20048;-58
2021/12/14 13:03:05;;;;;;;10.13;6.28;;;5.40;99.90;;;;;;5093947;28;20059;-59
2021/12/14 13:05:50;;;;;;;9.13;6.30;;;5.40;99.90;;;;;;5093519;28;20051;-59
2021/12/14 13:08:23;;;;;;;11.40;6.15;;;5.40;99.90;;;;;;5102536;28;20048;-58
2021/12/14 13:11:01;;;;;;;11.63;6.85;;;5.30;99.90;;;;;;5102770;28;20031;-59
2021/12/14 13:13:34;;;;;;;13.57;7.23;;;5.30;99.90;;;;;;5102915;28;20044;-58
2021/12/14 13:16:07;;;;;;;10.48;6.60;;;5.20;99.90;;;;;;5100695;28;20059;-58
2021/12/14 13:18:57;;;;;;;12.35;7.13;;;5.20;99.90;;;;;;5101433;28;20131;-58
2021/12/14 13:21:28;;;;;;;11.95;6.93;;;5.20;99.90;;;;;;5101703;28;20129;-59
2021/12/14 13:24:05;;;;;;;12.40;7.35;;;5.10;99.90;;;;;;5101999;28;20032;-59
2021/12/14 13:26:38;;;;;;;12.33;6.93;;;5.00;99.90;;;;;;5101939;28;20051;-60
2021/12/14 13:29:12;;;;;;;10.30;7.13;;;4.90;99.90;;;;;;5101707;28;20270;-60
2021/12/14 13:31:44;;;;;;;11.00;6.88;;;4.90;99.90;;;;;;5100003;28;20051;-60
2021/12/14 13:34:42;;;;;;;11.50;8.25;;;5.00;99.90;;;;;;5103646;28;20048;-60
2021/12/14 13:37:11;;;;;;;;;;;5.00;99.90;;;;;;5102999;28;20044;-58
2021/12/14 13:39:39;;;;;;;14.68;9.43;;;4.90;99.90;;;;;;5099612;28;19950;-60
2021/12/14 13:42:11;;;;;;;15.13;9.23;;;5.00;99.90;;;;;;5102794;28;20092;-60
2021/12/14 13:44:42;;;;;;;17.27;9.52;;;5.00;99.90;;;;;;5099566;28;20032;-60
2021/12/14 13:47:12;;;;;;;15.35;7.95;;;5.10;99.90;;;;;;5102129;28;20035;-60
2021/12/14 13:49:41;;;;;;;14.05;8.48;;;5.10;99.90;;;;;;5099576;28;20043;-60
2021/12/14 13:52:12;;;;;;;16.13;9.60;;;5.00;99.90;;;;;;5102442;28;20036;-60
2021/12/14 13:55:06;;;;;;;19.10;10.18;;;4.90;99.90;;;;;;5099420;28;20036;-60
2021/12/14 13:57:35;;;;;;;19.88;10.40;;;4.90;99.90;;;;;;5103109;28;20047;-60
2021/12/14 14:00:07;;;;;;;18.73;8.70;;;4.80;99.90;;;;;;5102191;28;20062;-60
2021/12/14 14:02:35;;;;;;;14.02;8.15;;;4.80;99.90;;;;;;5100160;28;20045;-60
2021/12/14 14:05:04;;;;;;;13.30;7.60;;;4.70;99.90;;;;;;5102861;28;20050;-60
2021/12/14 14:07:31;;;;;;;11.52;7.45;;;4.70;99.90;;;;;;5108864;28;20047;-60
2021/12/14 14:09:58;;;;;;;14.50;8.70;;;4.60;99.90;;;;;;5098213;28;20036;-60